Terminal Aerodrome Forecast
Issued by NWS Binghamton, NY

Home | Current Version | Previous Version | Text Only | Print | Product List | Glossary On
Versions: 1 2 3 4 5 6 7 8 9 10 11 12 13 14 15 16 17
000
FTUS41 KBGM 251733
TAFSYR
TAF
KSYR 251733Z 2518/2618 23008KT P6SM BKN025 BKN040
      TEMPO 2518/2522 SCT030 BKN100
     FM260000 25004KT P6SM BKN120
      TEMPO 2601/2605 4SM -TSRA OVC040CB
     FM260900 28006KT P6SM BKN015
     FM261400 29007KT P6SM SCT050=

USA.gov is the U.S. government's official web portal to all federal, state and local government web resources and services.